createdAt,value
2019-01-16T00:00:48.957Z,4.89
2019-01-16T00:03:38.403Z,4.87
2019-01-16T00:06:27.852Z,4.87
2019-01-16T00:09:17.176Z,4.85
2019-01-16T00:12:06.728Z,4.87
2019-01-16T00:14:54.622Z,4.85
2019-01-16T00:17:44.016Z,4.83
2019-01-16T00:20:33.443Z,4.82
2019-01-16T00:23:22.754Z,4.86
2019-01-16T00:26:12.079Z,4.84
2019-01-16T00:28:50.836Z,4.83
2019-01-16T00:31:33.146Z,4.81
2019-01-16T00:34:22.826Z,4.84
2019-01-16T00:37:12.249Z,4.83
2019-01-16T00:39:58.943Z,4.82
2019-01-16T00:42:48.196Z,4.77
2019-01-16T00:45:30.673Z,4.78
2019-01-16T00:48:24.496Z,4.83
2019-01-16T00:51:11.073Z,4.82
2019-01-16T00:53:51.698Z,4.81
2019-01-16T00:56:41.179Z,4.80
2019-01-16T00:59:30.702Z,4.78
2019-01-16T01:02:20.219Z,4.74
2019-01-16T01:05:07.772Z,4.76
2019-01-16T01:07:50.809Z,4.81
2019-01-16T01:10:28.859Z,4.78
2019-01-16T01:13:18.252Z,4.79
2019-01-16T01:16:07.597Z,4.80
2019-01-16T01:18:51.127Z,4.79
2019-01-16T01:21:40.600Z,4.78
2019-01-16T01:24:30.033Z,4.76
2019-01-16T01:27:15.880Z,4.80
2019-01-16T01:30:05.557Z,4.78
2019-01-16T01:32:55.006Z,4.83
2019-01-16T01:35:44.542Z,4.76
2019-01-16T01:38:32.026Z,4.74
2019-01-16T01:41:21.576Z,4.67
2019-01-16T01:43:58.179Z,4.69
2019-01-16T01:46:47.632Z,4.67
2019-01-16T01:49:36.968Z,4.67
2019-01-16T01:52:27.703Z,4.64
2019-01-16T01:55:08.033Z,4.62
2019-01-16T01:57:53.956Z,4.59
2019-01-16T02:00:43.365Z,4.61
2019-01-16T02:03:32.170Z,4.62
2019-01-16T02:06:22.207Z,4.60
2019-01-16T02:09:11.515Z,4.61
2019-01-16T02:12:01.482Z,4.59
2019-01-16T02:14:48.986Z,4.55
2019-01-16T02:17:38.400Z,4.59
2019-01-16T02:20:19.343Z,4.60
2019-01-16T02:23:08.753Z,4.59
2019-01-16T02:25:58.872Z,4.59
2019-01-16T02:28:43.058Z,4.56
2019-01-16T02:31:27.228Z,4.55
2019-01-16T02:34:14.602Z,4.54
2019-01-16T02:36:55.922Z,4.54
2019-01-16T02:39:45.238Z,4.50
2019-01-16T02:42:34.728Z,4.50
2019-01-16T02:45:25.444Z,4.52
2019-01-16T02:48:12.702Z,4.49
2019-01-16T02:51:02.239Z,4.48
2019-01-16T02:53:51.640Z,4.48
2019-01-16T02:56:36.648Z,4.50
2019-01-16T02:59:26.051Z,4.49
2019-01-16T03:02:15.796Z,4.48
2019-01-16T03:05:04.967Z,4.47
2019-01-16T03:07:54.265Z,4.52
2019-01-16T03:10:43.537Z,4.49
2019-01-16T03:13:27.623Z,4.50
2019-01-16T03:16:16.925Z,4.51
2019-01-16T03:19:06.241Z,4.52
2019-01-16T03:21:55.547Z,4.49
2019-01-16T03:24:44.847Z,4.48
2019-01-16T03:27:34.106Z,4.49
2019-01-16T03:30:24.911Z,4.51
2019-01-16T03:33:14.178Z,4.51
2019-01-16T03:36:03.738Z,4.53
2019-01-16T03:38:50.857Z,4.55
2019-01-16T03:41:28.412Z,4.56
2019-01-16T03:44:05.422Z,4.57
2019-01-16T03:46:54.833Z,4.59
2019-01-16T03:49:33.415Z,4.61
2019-01-16T03:52:22.954Z,4.63
2019-01-16T03:55:04.762Z,4.67
2019-01-16T03:57:54.126Z,4.70
2019-01-16T04:00:43.523Z,4.67
2019-01-16T04:03:32.923Z,4.68
2019-01-16T04:06:22.276Z,4.69
2019-01-16T04:09:11.647Z,4.67
2019-01-16T04:12:01.046Z,4.69
2019-01-16T04:14:50.423Z,4.70
2019-01-16T04:17:39.736Z,4.68
2019-01-16T04:20:15.832Z,4.77
2019-01-16T04:22:53.743Z,4.79
2019-01-16T04:25:43.001Z,4.81
2019-01-16T04:28:21.242Z,4.79
2019-01-16T04:31:10.537Z,4.76
2019-01-16T04:33:59.949Z,4.79
2019-01-16T04:36:49.113Z,4.82
2019-01-16T04:39:38.458Z,4.84
2019-01-16T04:42:20.704Z,4.85
2019-01-16T04:45:09.272Z,4.87
2019-01-16T04:47:53.298Z,4.89
2019-01-16T04:50:42.572Z,4.87
2019-01-16T04:53:32.037Z,4.85
2019-01-16T04:56:21.303Z,4.86
2019-01-16T04:59:10.606Z,4.88
2019-01-16T05:01:55.886Z,4.87
2019-01-16T05:04:45.173Z,4.83
2019-01-16T05:07:33.697Z,4.85
2019-01-16T05:10:23.858Z,4.89
2019-01-16T05:13:13.296Z,4.90
2019-01-16T05:16:03.116Z,4.92
2019-01-16T05:18:48.512Z,4.96
2019-01-16T05:21:37.843Z,4.95
2019-01-16T05:24:27.252Z,4.97
2019-01-16T05:27:16.613Z,4.99
2019-01-16T05:29:59.237Z,5.01
2019-01-16T05:32:48.837Z,5.03
2019-01-16T05:35:38.878Z,5.05
2019-01-16T05:38:24.102Z,5.07
2019-01-16T05:41:13.402Z,5.07
2019-01-16T05:44:02.653Z,5.09
2019-01-16T05:46:48.665Z,5.12
2019-01-16T05:49:38.058Z,5.11
2019-01-16T05:52:27.586Z,5.11
2019-01-16T05:55:16.967Z,5.12
2019-01-16T05:58:06.361Z,5.14
2019-01-16T06:00:55.831Z,5.15
2019-01-16T06:03:45.207Z,5.17
2019-01-16T06:06:34.997Z,5.17
2019-01-16T06:09:21.424Z,5.17
2019-01-16T06:12:10.687Z,5.15
2019-01-16T06:15:00.243Z,5.15
2019-01-16T06:17:49.848Z,5.14
2019-01-16T06:20:39.733Z,5.15
2019-01-16T06:23:24.049Z,5.16
2019-01-16T06:26:13.508Z,5.16
2019-01-16T06:28:54.593Z,5.17
2019-01-16T06:31:37.338Z,5.18
2019-01-16T06:34:26.870Z,5.18
2019-01-16T06:37:16.303Z,5.19
2019-01-16T06:40:05.657Z,5.18
2019-01-16T06:42:55.448Z,5.18
2019-01-16T06:45:44.928Z,5.19
2019-01-16T06:48:26.997Z,5.23
2019-01-16T06:51:16.324Z,5.25
2019-01-16T06:54:02.854Z,5.23
2019-01-16T06:56:52.094Z,5.21
2019-01-16T06:59:41.474Z,5.20
2019-01-16T07:02:30.801Z,5.23
2019-01-16T07:05:20.298Z,5.25
2019-01-16T07:08:09.812Z,5.26
2019-01-16T07:10:52.758Z,5.26
2019-01-16T07:13:42.164Z,5.26
2019-01-16T07:16:27.841Z,5.25
2019-01-16T07:19:17.282Z,5.26
2019-01-16T07:22:06.573Z,5.24
2019-01-16T07:24:52.308Z,5.24
2019-01-16T07:27:41.777Z,5.26
2019-01-16T07:30:32.146Z,5.25
2019-01-16T07:33:21.392Z,5.32
2019-01-16T07:36:11.645Z,5.26
2019-01-16T07:39:01.111Z,5.30
2019-01-16T07:41:50.458Z,5.27
2019-01-16T07:44:39.773Z,5.29
2019-01-16T07:47:29.188Z,5.25
2019-01-16T07:50:17.165Z,5.25
2019-01-16T07:53:02.485Z,5.28
2019-01-16T07:55:51.908Z,5.26
2019-01-16T07:58:41.592Z,5.27
2019-01-16T08:01:28.334Z,5.31
2019-01-16T08:04:17.696Z,5.32
2019-01-16T08:07:07.205Z,5.33
2019-01-16T08:09:53.898Z,5.32
2019-01-16T08:12:43.130Z,5.32
2019-01-16T08:15:32.778Z,5.30
2019-01-16T08:18:17.438Z,5.27
2019-01-16T08:21:07.011Z,5.29
2019-01-16T08:23:56.652Z,5.24
2019-01-16T08:26:46.243Z,5.27
2019-01-16T08:29:27.747Z,5.31
2019-01-16T08:32:13.105Z,5.33
2019-01-16T08:35:02.829Z,5.34
2019-01-16T08:37:52.847Z,5.34
2019-01-16T08:40:42.217Z,5.39
2019-01-16T08:43:22.827Z,5.41
2019-01-16T08:46:11.197Z,5.39
2019-01-16T08:48:57.408Z,5.44
2019-01-16T08:51:46.821Z,5.46
2019-01-16T08:54:36.113Z,5.48
2019-01-16T08:57:25.916Z,5.52
2019-01-16T09:00:15.268Z,5.56
2019-01-16T09:03:00.626Z,5.60
2019-01-16T09:05:49.697Z,5.61
2019-01-16T09:08:39.132Z,5.66
2019-01-16T09:11:28.456Z,5.64
2019-01-16T09:14:17.884Z,5.69
2019-01-16T09:17:07.551Z,5.70
2019-01-16T09:19:47.654Z,5.72
2019-01-16T09:22:38.092Z,5.78
2019-01-16T09:25:17.883Z,5.76
2019-01-16T09:28:05.174Z,5.68
2019-01-16T09:30:54.507Z,5.68
2019-01-16T09:33:43.916Z,5.71
2019-01-16T09:36:27.986Z,5.71
2019-01-16T09:39:17.357Z,5.78
2019-01-16T09:42:00.987Z,5.80
2019-01-16T09:44:50.212Z,5.84
2019-01-16T09:47:29.756Z,5.88
2019-01-16T09:50:08.217Z,5.87
2019-01-16T09:52:57.499Z,5.98
2019-01-16T09:55:46.848Z,6.08
2019-01-16T09:58:36.302Z,6.24
2019-01-16T10:01:19.888Z,6.48
2019-01-16T10:04:09.197Z,6.61
2019-01-16T10:06:48.406Z,6.46
2019-01-16T10:09:37.726Z,6.35
2019-01-16T10:12:27.298Z,6.32
2019-01-16T10:15:16.758Z,6.31
2019-01-16T10:18:06.047Z,6.09
2019-01-16T10:20:56.075Z,6.11
2019-01-16T10:23:37.383Z,6.10
2019-01-16T10:26:26.917Z,6.17
2019-01-16T10:29:16.496Z,6.21
2019-01-16T10:31:57.151Z,6.17
2019-01-16T10:34:42.528Z,6.18
2019-01-16T10:37:30.305Z,6.19
2019-01-16T10:40:19.678Z,6.17
2019-01-16T10:43:08.979Z,6.15
2019-01-16T10:45:58.408Z,6.05
2019-01-16T10:48:49.842Z,6.09
2019-01-16T10:51:37.338Z,6.08
2019-01-16T10:54:17.139Z,6.05
2019-01-16T10:57:06.555Z,6.06
2019-01-16T10:59:50.775Z,6.13
2019-01-16T11:02:32.693Z,6.16
2019-01-16T11:05:16.309Z,6.12
2019-01-16T11:07:54.148Z,6.11
2019-01-16T11:10:43.616Z,6.08
2019-01-16T11:13:32.850Z,6.07
2019-01-16T11:16:22.329Z,6.11
2019-01-16T11:19:08.832Z,6.04
2019-01-16T11:21:58.222Z,6.02
2019-01-16T11:24:46.256Z,5.99
2019-01-16T11:27:25.498Z,5.99
2019-01-16T11:30:14.952Z,5.97
2019-01-16T11:33:04.274Z,5.91
2019-01-16T11:35:53.582Z,5.87
2019-01-16T11:38:43.716Z,5.87
2019-01-16T11:41:30.942Z,5.86
2019-01-16T11:44:20.390Z,5.84
2019-01-16T11:47:08.657Z,5.84
2019-01-16T11:49:58.015Z,5.76
2019-01-16T11:52:41.981Z,5.73
2019-01-16T11:55:31.476Z,5.70
2019-01-16T11:58:20.803Z,5.70
2019-01-16T12:01:02.166Z,5.70
2019-01-16T12:03:51.556Z,5.68
2019-01-16T12:06:28.984Z,5.61
2019-01-16T12:09:18.833Z,5.70
2019-01-16T12:12:08.054Z,5.76
2019-01-16T12:14:54.174Z,5.83
2019-01-16T12:17:33.752Z,5.88
2019-01-16T12:20:23.330Z,5.90
2019-01-16T12:23:12.648Z,5.94
2019-01-16T12:25:52.729Z,6.02
2019-01-16T12:28:40.080Z,6.06
2019-01-16T12:31:29.478Z,6.06
2019-01-16T12:34:11.672Z,6.12
2019-01-16T12:37:01.080Z,6.17
2019-01-16T12:39:50.303Z,6.20
2019-01-16T12:42:39.632Z,6.13
2019-01-16T12:45:29.352Z,6.17
2019-01-16T12:48:10.658Z,6.16
2019-01-16T12:50:55.028Z,6.16
2019-01-16T12:53:36.201Z,6.10
2019-01-16T12:56:25.662Z,6.09
2019-01-16T12:59:15.100Z,6.16
2019-01-16T13:02:04.483Z,6.13
2019-01-16T13:04:50.097Z,6.09
2019-01-16T13:07:39.493Z,6.17
2019-01-16T13:10:24.877Z,6.18
2019-01-16T13:13:14.237Z,6.20
2019-01-16T13:16:03.832Z,6.15
2019-01-16T13:18:54.117Z,6.20
2019-01-16T13:21:43.582Z,6.20
2019-01-16T13:24:32.852Z,6.22
2019-01-16T13:27:22.358Z,6.20
2019-01-16T13:30:11.643Z,6.20
2019-01-16T13:33:00.979Z,6.13
2019-01-16T13:35:50.333Z,6.14
2019-01-16T13:38:29.664Z,6.11
2019-01-16T13:41:13.712Z,6.13
2019-01-16T13:43:59.689Z,6.06
2019-01-16T13:46:49.078Z,6.05
2019-01-16T13:49:38.425Z,6.07
2019-01-16T13:52:27.893Z,6.09
2019-01-16T13:55:17.179Z,6.03
2019-01-16T13:58:06.622Z,6.02
2019-01-16T14:00:53.713Z,5.95
2019-01-16T14:03:31.407Z,5.95
2019-01-16T14:06:20.687Z,5.93
2019-01-16T14:09:10.478Z,5.90
2019-01-16T14:11:59.870Z,5.93
2019-01-16T14:14:49.357Z,5.87
2019-01-16T14:17:38.663Z,5.85
2019-01-16T14:20:32.815Z,5.80
2019-01-16T14:23:22.156Z,5.77
2019-01-16T14:26:04.111Z,5.70
2019-01-16T14:28:53.447Z,5.68
2019-01-16T14:31:42.736Z,5.69
2019-01-16T14:34:32.056Z,5.68
2019-01-16T14:37:21.427Z,5.67
2019-01-16T14:40:10.667Z,5.65
2019-01-16T14:43:00.110Z,5.62
2019-01-16T14:45:49.496Z,5.58
2019-01-16T14:48:30.727Z,5.58
2019-01-16T14:51:20.201Z,5.56
2019-01-16T14:54:09.578Z,5.54
2019-01-16T14:56:54.053Z,5.53
2019-01-16T14:59:43.358Z,5.51
2019-01-16T15:02:31.134Z,5.47
2019-01-16T15:05:22.197Z,5.47
2019-01-16T15:08:11.585Z,5.46
2019-01-16T15:11:00.902Z,5.42
2019-01-16T15:14:00.195Z,5.40
2019-01-16T15:16:49.903Z,5.39
2019-01-16T15:19:39.315Z,5.37
2019-01-16T15:22:20.925Z,5.34
2019-01-16T15:25:06.157Z,5.37
2019-01-16T15:27:55.512Z,5.35
2019-01-16T15:30:45.459Z,5.34
2019-01-16T15:33:34.870Z,5.36
2019-01-16T15:36:24.657Z,5.38
2019-01-16T15:39:14.023Z,5.33
2019-01-16T15:41:54.598Z,5.33
2019-01-16T15:44:44.102Z,5.34
2019-01-16T15:47:33.604Z,5.31
2019-01-16T15:50:19.853Z,5.34
2019-01-16T15:53:09.368Z,5.33
2019-01-16T15:55:59.813Z,5.32
2019-01-16T15:58:49.203Z,5.31
2019-01-16T16:01:34.317Z,5.31
2019-01-16T16:04:13.016Z,5.29
2019-01-16T16:07:02.582Z,5.28
2019-01-16T16:09:52.033Z,5.27
2019-01-16T16:12:42.667Z,5.28
2019-01-16T16:15:37.733Z,5.28
2019-01-16T16:18:30.578Z,5.32
2019-01-16T16:21:23.732Z,5.28
2019-01-16T16:24:13.546Z,5.27
2019-01-16T16:27:03.097Z,5.27
2019-01-16T16:29:56.643Z,5.29
2019-01-16T16:32:39.853Z,5.30
2019-01-16T16:35:29.528Z,5.25
2019-01-16T16:38:19.078Z,5.24
2019-01-16T16:41:02.367Z,5.22
2019-01-16T16:43:49.947Z,5.21
2019-01-16T16:46:46.926Z,5.17
2019-01-16T16:49:36.443Z,5.15
2019-01-16T16:52:26.212Z,5.13
2019-01-16T16:55:15.762Z,5.08
2019-01-16T16:57:57.742Z,5.03
2019-01-16T17:00:47.205Z,5.03
2019-01-16T17:03:40.222Z,5.04
2019-01-16T17:06:31.116Z,4.94
2019-01-16T17:09:20.529Z,4.92
2019-01-16T17:12:23.097Z,4.92
2019-01-16T17:15:12.479Z,4.88
2019-01-16T17:18:04.677Z,4.89
2019-01-16T17:20:45.314Z,4.88
2019-01-16T17:23:37.882Z,4.83
2019-01-16T17:26:27.366Z,4.86
2019-01-16T17:29:19.574Z,4.85
2019-01-16T17:32:12.533Z,4.87
2019-01-16T17:35:01.958Z,4.84
2019-01-16T17:37:49.986Z,4.79
2019-01-16T17:40:44.023Z,4.78
2019-01-16T17:43:31.182Z,4.76
2019-01-16T17:46:25.533Z,4.73
2019-01-16T17:49:18.454Z,4.73
2019-01-16T17:52:07.913Z,4.70
2019-01-16T17:54:58.292Z,4.67
2019-01-16T17:57:51.469Z,4.70
2019-01-16T18:00:43.157Z,4.66
2019-01-16T18:03:36.997Z,4.66
2019-01-16T18:06:25.668Z,4.63
2019-01-16T18:09:15.769Z,4.63
2019-01-16T18:12:06.463Z,4.58
2019-01-16T18:14:54.393Z,4.54
2019-01-16T18:17:44.966Z,4.52
2019-01-16T18:20:38.944Z,4.48
2019-01-16T18:23:32.542Z,4.39
2019-01-16T18:26:22.057Z,4.36
2019-01-16T18:29:15.528Z,4.33
2019-01-16T18:32:06.087Z,4.32
2019-01-16T18:34:55.597Z,4.30
2019-01-16T18:37:41.156Z,4.30
2019-01-16T18:40:39.249Z,4.29
2019-01-16T18:43:23.727Z,4.28
2019-01-16T18:46:15.537Z,4.28
2019-01-16T18:49:07.762Z,4.30
2019-01-16T18:51:57.818Z,4.26
2019-01-16T18:54:50.708Z,4.23
2019-01-16T18:57:31.893Z,4.21
2019-01-16T19:00:22.531Z,4.20
2019-01-16T19:03:18.719Z,4.19
2019-01-16T19:06:11.663Z,4.21
2019-01-16T19:09:01.204Z,4.14
2019-01-16T19:11:54.304Z,4.18
2019-01-16T19:14:43.908Z,4.16
2019-01-16T19:17:34.803Z,4.16
2019-01-16T19:20:21.433Z,4.08
2019-01-16T19:23:11.278Z,4.00
2019-01-16T19:26:03.091Z,3.90
2019-01-16T19:28:56.062Z,3.82
2019-01-16T19:31:51.651Z,3.72
2019-01-16T19:34:36.018Z,3.69
2019-01-16T19:37:17.792Z,3.59
2019-01-16T19:40:08.366Z,3.51
2019-01-16T19:43:00.044Z,3.45
2019-01-16T19:45:52.002Z,3.38
2019-01-16T19:48:49.039Z,3.33
2019-01-16T19:51:47.583Z,3.25
2019-01-16T19:54:33.027Z,3.21
2019-01-16T19:57:28.683Z,3.10
2019-01-16T20:00:13.979Z,3.02
2019-01-16T20:03:01.297Z,2.94
2019-01-16T20:05:54.669Z,2.85
2019-01-16T20:08:45.093Z,2.75
2019-01-16T20:11:35.992Z,2.71
2019-01-16T20:14:31.884Z,2.61
2019-01-16T20:17:19.667Z,2.55
2019-01-16T20:20:06.392Z,2.47
2019-01-16T20:22:59.016Z,2.42
2019-01-16T20:25:52.397Z,2.42
2019-01-16T20:28:43.478Z,2.37
2019-01-16T20:31:33.037Z,2.44
2019-01-16T20:34:22.667Z,2.55
2019-01-16T20:37:08.722Z,2.52
2019-01-16T20:40:00.228Z,2.45
2019-01-16T20:42:51.346Z,2.43
2019-01-16T20:45:51.020Z,2.65
2019-01-16T20:48:36.037Z,2.63
2019-01-16T20:51:30.829Z,2.54
2019-01-16T20:54:22.178Z,2.49
2019-01-16T20:57:11.984Z,2.46
2019-01-16T21:00:07.758Z,2.40
2019-01-16T21:03:02.726Z,2.35
2019-01-16T21:06:08.357Z,2.24
2019-01-16T21:08:42.240Z,2.17
2019-01-16T21:11:36.742Z,2.15
2019-01-16T21:14:30.793Z,2.09
2019-01-16T21:17:23.135Z,2.08
2019-01-16T21:20:13.268Z,2.10
2019-01-16T21:23:02.783Z,2.17
2019-01-16T21:26:04.544Z,2.27
2019-01-16T21:28:55.049Z,2.54
2019-01-16T21:31:45.466Z,2.50
2019-01-16T21:34:43.647Z,2.60
2019-01-16T21:37:22.748Z,2.67
2019-01-16T21:40:12.277Z,2.73
2019-01-16T21:43:05.183Z,2.83
2019-01-16T21:45:54.654Z,2.86
2019-01-16T21:48:42.792Z,2.72
2019-01-16T21:51:32.227Z,2.69
2019-01-16T21:54:21.678Z,2.75
2019-01-16T21:57:11.387Z,2.74
2019-01-16T22:00:00.887Z,2.72
2019-01-16T22:02:50.786Z,2.76
2019-01-16T22:05:37.533Z,2.72
2019-01-16T22:08:27.418Z,2.67
2019-01-16T22:11:08.115Z,2.71
2019-01-16T22:13:53.311Z,2.68
2019-01-16T22:16:42.957Z,2.65
2019-01-16T22:19:32.915Z,2.64
2019-01-16T22:22:13.132Z,2.71
2019-01-16T22:25:02.568Z,2.68
2019-01-16T22:27:51.957Z,2.67
2019-01-16T22:30:41.432Z,2.75
2019-01-16T22:33:30.769Z,2.72
2019-01-16T22:36:25.377Z,2.61
2019-01-16T22:39:08.827Z,2.53
2019-01-16T22:42:00.118Z,2.41
2019-01-16T22:44:52.040Z,2.28
2019-01-16T22:47:41.554Z,2.17
2019-01-16T22:50:22.447Z,2.06
2019-01-16T22:53:11.788Z,2.03
2019-01-16T22:56:00.267Z,1.99
2019-01-16T22:58:37.069Z,2.05
2019-01-16T23:01:17.087Z,2.00
2019-01-16T23:04:06.566Z,1.99
2019-01-16T23:06:56.120Z,1.98
2019-01-16T23:09:35.766Z,2.00
2019-01-16T23:12:25.326Z,1.94
2019-01-16T23:15:14.709Z,1.92
2019-01-16T23:18:04.063Z,1.89
2019-01-16T23:20:53.426Z,1.87
2019-01-16T23:23:42.807Z,1.80
2019-01-16T23:26:32.117Z,1.80
2019-01-16T23:29:13.374Z,1.83
2019-01-16T23:31:57.906Z,1.94
2019-01-16T23:34:46.102Z,1.97
2019-01-16T23:37:35.526Z,2.03
2019-01-16T23:40:17.807Z,2.10
2019-01-16T23:43:07.166Z,2.09
2019-01-16T23:45:56.642Z,2.12
2019-01-16T23:48:36.312Z,2.13
2019-01-16T23:51:25.848Z,2.15
2019-01-16T23:54:15.644Z,2.15
2019-01-16T23:56:56.477Z,2.08
2019-01-16T23:59:45.810Z,2.08
